sensor_id;sensor_type;location;lat;lon;timestamp;temperature;humidity
20428;DHT22;10373;49.768;18.302;2023-07-08T00:00:16;16.50;99.90
20428;DHT22;10373;49.768;18.302;2023-07-08T00:02:42;16.40;99.90
20428;DHT22;10373;49.768;18.302;2023-07-08T00:05:13;16.20;99.90
20428;DHT22;10373;49.768;18.302;2023-07-08T00:07:39;16.20;99.90
20428;DHT22;10373;49.768;18.302;2023-07-08T00:12:38;16.10;99.90
20428;DHT22;10373;49.768;18.302;2023-07-08T00:15:05;16.10;99.90
20428;DHT22;10373;49.768;18.302;2023-07-08T00:17:31;16.10;99.90
20428;DHT22;10373;49.768;18.302;2023-07-08T00:19:56;16.10;99.90
20428;DHT22;10373;49.768;18.302;2023-07-08T00:22:22;16.20;99.90
20428;DHT22;10373;49.768;18.302;2023-07-08T00:24:50;16.20;99.90
20428;DHT22;10373;49.768;18.302;2023-07-08T00:27:16;16.20;99.90
20428;DHT22;10373;49.768;18.302;2023-07-08T00:29:42;16.20;99.90
20428;DHT22;10373;49.768;18.302;2023-07-08T00:32:11;16.00;99.90
20428;DHT22;10373;49.768;18.302;2023-07-08T00:34:37;16.00;99.90
20428;DHT22;10373;49.768;18.302;2023-07-08T00:37:03;16.00;99.90
20428;DHT22;10373;49.768;18.302;2023-07-08T00:39:33;16.10;99.90
20428;DHT22;10373;49.768;18.302;2023-07-08T00:42:00;16.10;99.90
20428;DHT22;10373;49.768;18.302;2023-07-08T00:44:27;16.20;99.90
20428;DHT22;10373;49.768;18.302;2023-07-08T00:47:02;16.20;99.90
20428;DHT22;10373;49.768;18.302;2023-07-08T00:49:31;16.10;99.90
20428;DHT22;10373;49.768;18.302;2023-07-08T00:54:58;15.90;99.90
20428;DHT22;10373;49.768;18.302;2023-07-08T00:57:27;15.90;99.90
20428;DHT22;10373;49.768;18.302;2023-07-08T01:00:18;15.90;99.90
20428;DHT22;10373;49.768;18.302;2023-07-08T01:02:53;15.80;99.90
20428;DHT22;10373;49.768;18.302;2023-07-08T01:05:24;15.80;99.90
20428;DHT22;10373;49.768;18.302;2023-07-08T01:07:57;15.90;99.90
20428;DHT22;10373;49.768;18.302;2023-07-08T01:10:37;15.70;99.90
20428;DHT22;10373;49.768;18.302;2023-07-08T01:13:06;15.50;99.90
20428;DHT22;10373;49.768;18.302;2023-07-08T01:15:40;15.40;99.90
20428;DHT22;10373;49.768;18.302;2023-07-08T01:18:09;15.50;99.90
20428;DHT22;10373;49.768;18.302;2023-07-08T01:20:35;15.50;99.90
20428;DHT22;10373;49.768;18.302;2023-07-08T01:23:01;15.60;99.90
20428;DHT22;10373;49.768;18.302;2023-07-08T01:25:27;15.60;99.90
20428;DHT22;10373;49.768;18.302;2023-07-08T01:27:54;15.60;99.90
20428;DHT22;10373;49.768;18.302;2023-07-08T01:30:21;15.60;99.90
20428;DHT22;10373;49.768;18.302;2023-07-08T01:32:55;15.60;99.90
20428;DHT22;10373;49.768;18.302;2023-07-08T01:35:22;15.50;99.90
20428;DHT22;10373;49.768;18.302;2023-07-08T01:38:00;15.50;99.90
20428;DHT22;10373;49.768;18.302;2023-07-08T01:40:32;15.50;99.90
20428;DHT22;10373;49.768;18.302;2023-07-08T01:42:59;15.50;99.90
20428;DHT22;10373;49.768;18.302;2023-07-08T01:45:27;15.30;99.90
20428;DHT22;10373;49.768;18.302;2023-07-08T01:48:07;15.20;99.90
20428;DHT22;10373;49.768;18.302;2023-07-08T01:50:37;15.30;99.90
20428;DHT22;10373;49.768;18.302;2023-07-08T01:53:10;15.20;99.90
20428;DHT22;10373;49.768;18.302;2023-07-08T01:55:37;15.10;99.90
20428;DHT22;10373;49.768;18.302;2023-07-08T01:58:02;15.30;99.90
20428;DHT22;10373;49.768;18.302;2023-07-08T02:00:28;15.30;99.90
20428;DHT22;10373;49.768;18.302;2023-07-08T02:02:54;15.40;99.90
20428;DHT22;10373;49.768;18.302;2023-07-08T02:05:19;15.40;99.90
20428;DHT22;10373;49.768;18.302;2023-07-08T02:07:45;15.30;99.90
20428;DHT22;10373;49.768;18.302;2023-07-08T02:10:11;15.30;99.90
20428;DHT22;10373;49.768;18.302;2023-07-08T02:12:37;15.30;99.90
20428;DHT22;10373;49.768;18.302;2023-07-08T02:15:05;15.20;99.90
20428;DHT22;10373;49.768;18.302;2023-07-08T02:17:31;15.20;99.90
20428;DHT22;10373;49.768;18.302;2023-07-08T02:19:57;15.10;99.90
20428;DHT22;10373;49.768;18.302;2023-07-08T02:22:23;15.20;99.90
20428;DHT22;10373;49.768;18.302;2023-07-08T02:24:49;15.00;99.90
20428;DHT22;10373;49.768;18.302;2023-07-08T02:27:14;15.00;99.90
20428;DHT22;10373;49.768;18.302;2023-07-08T02:29:40;15.10;99.90
20428;DHT22;10373;49.768;18.302;2023-07-08T02:32:08;15.00;99.90
20428;DHT22;10373;49.768;18.302;2023-07-08T02:34:35;15.00;99.90
20428;DHT22;10373;49.768;18.302;2023-07-08T02:37:01;15.00;99.90
20428;DHT22;10373;49.768;18.302;2023-07-08T02:39:27;15.00;99.90
20428;DHT22;10373;49.768;18.302;2023-07-08T02:41:53;15.10;99.90
20428;DHT22;10373;49.768;18.302;2023-07-08T02:44:18;15.00;99.90
20428;DHT22;10373;49.768;18.302;2023-07-08T02:46:44;15.10;99.90
20428;DHT22;10373;49.768;18.302;2023-07-08T02:49:09;14.90;99.90
20428;DHT22;10373;49.768;18.302;2023-07-08T02:51:35;15.00;99.90
20428;DHT22;10373;49.768;18.302;2023-07-08T02:54:01;15.00;99.90
20428;DHT22;10373;49.768;18.302;2023-07-08T02:56:27;14.90;99.90
20428;DHT22;10373;49.768;18.302;2023-07-08T02:58:53;15.00;99.90
20428;DHT22;10373;49.768;18.302;2023-07-08T03:01:18;15.00;99.90
20428;DHT22;10373;49.768;18.302;2023-07-08T03:03:45;15.00;99.90
20428;DHT22;10373;49.768;18.302;2023-07-08T03:06:11;15.00;99.90
20428;DHT22;10373;49.768;18.302;2023-07-08T03:08:37;14.80;99.90
20428;DHT22;10373;49.768;18.302;2023-07-08T03:11:04;14.90;99.90
20428;DHT22;10373;49.768;18.302;2023-07-08T03:13:31;14.80;99.90
20428;DHT22;10373;49.768;18.302;2023-07-08T03:15:58;14.90;99.90
20428;DHT22;10373;49.768;18.302;2023-07-08T03:18:28;15.00;99.90
20428;DHT22;10373;49.768;18.302;2023-07-08T03:20:55;15.00;99.90
20428;DHT22;10373;49.768;18.302;2023-07-08T03:23:25;15.00;99.90
20428;DHT22;10373;49.768;18.302;2023-07-08T03:25:51;15.00;99.90
20428;DHT22;10373;49.768;18.302;2023-07-08T03:28:17;15.00;99.90
20428;DHT22;10373;49.768;18.302;2023-07-08T03:30:44;15.10;99.90
20428;DHT22;10373;49.768;18.302;2023-07-08T03:33:11;15.10;99.90
20428;DHT22;10373;49.768;18.302;2023-07-08T03:35:37;15.10;99.90
20428;DHT22;10373;49.768;18.302;2023-07-08T03:38:04;15.10;99.90
20428;DHT22;10373;49.768;18.302;2023-07-08T03:40:31;15.00;99.90
20428;DHT22;10373;49.768;18.302;2023-07-08T03:42:57;14.80;99.90
20428;DHT22;10373;49.768;18.302;2023-07-08T03:45:23;14.90;99.90
20428;DHT22;10373;49.768;18.302;2023-07-08T03:47:48;15.00;99.90
20428;DHT22;10373;49.768;18.302;2023-07-08T03:50:22;15.20;99.90
20428;DHT22;10373;49.768;18.302;2023-07-08T03:52:50;15.20;99.90
20428;DHT22;10373;49.768;18.302;2023-07-08T03:55:16;15.10;99.90
20428;DHT22;10373;49.768;18.302;2023-07-08T03:57:42;15.30;99.90
20428;DHT22;10373;49.768;18.302;2023-07-08T04:00:08;15.50;99.90
20428;DHT22;10373;49.768;18.302;2023-07-08T04:02:36;15.70;99.90
20428;DHT22;10373;49.768;18.302;2023-07-08T04:05:02;15.80;99.90
20428;DHT22;10373;49.768;18.302;2023-07-08T04:07:29;15.90;99.90
20428;DHT22;10373;49.768;18.302;2023-07-08T04:09:54;16.00;99.90
20428;DHT22;10373;49.768;18.302;2023-07-08T04:12:20;15.90;99.90
20428;DHT22;10373;49.768;18.302;2023-07-08T04:14:46;16.00;99.90
20428;DHT22;10373;49.768;18.302;2023-07-08T04:17:11;16.10;99.90
20428;DHT22;10373;49.768;18.302;2023-07-08T04:19:38;16.20;99.90
20428;DHT22;10373;49.768;18.302;2023-07-08T04:22:09;16.30;99.90
20428;DHT22;10373;49.768;18.302;2023-07-08T04:24:36;16.30;99.90
20428;DHT22;10373;49.768;18.302;2023-07-08T04:27:02;16.20;99.90
20428;DHT22;10373;49.768;18.302;2023-07-08T04:29:28;16.30;99.90
20428;DHT22;10373;49.768;18.302;2023-07-08T04:31:53;16.50;99.90
20428;DHT22;10373;49.768;18.302;2023-07-08T04:34:20;16.50;99.90
20428;DHT22;10373;49.768;18.302;2023-07-08T04:36:46;16.60;99.90
20428;DHT22;10373;49.768;18.302;2023-07-08T04:39:12;16.70;99.90
20428;DHT22;10373;49.768;18.302;2023-07-08T04:41:39;16.80;99.90
20428;DHT22;10373;49.768;18.302;2023-07-08T04:44:12;16.80;99.90
20428;DHT22;10373;49.768;18.302;2023-07-08T04:46:55;16.90;99.90
20428;DHT22;10373;49.768;18.302;2023-07-08T04:49:22;17.10;99.90
20428;DHT22;10373;49.768;18.302;2023-07-08T04:51:48;17.20;99.90
20428;DHT22;10373;49.768;18.302;2023-07-08T04:54:14;17.30;99.90
20428;DHT22;10373;49.768;18.302;2023-07-08T04:56:45;17.40;99.90
20428;DHT22;10373;49.768;18.302;2023-07-08T04:59:19;17.50;99.90
20428;DHT22;10373;49.768;18.302;2023-07-08T05:01:45;17.60;99.90
20428;DHT22;10373;49.768;18.302;2023-07-08T05:04:13;17.80;99.90
20428;DHT22;10373;49.768;18.302;2023-07-08T05:06:39;17.90;99.90
20428;DHT22;10373;49.768;18.302;2023-07-08T05:09:05;18.00;99.90
20428;DHT22;10373;49.768;18.302;2023-07-08T05:11:31;18.10;99.90
20428;DHT22;10373;49.768;18.302;2023-07-08T05:13:57;18.20;99.90
20428;DHT22;10373;49.768;18.302;2023-07-08T05:16:22;18.40;99.90
20428;DHT22;10373;49.768;18.302;2023-07-08T05:18:49;18.50;99.90
20428;DHT22;10373;49.768;18.302;2023-07-08T05:21:18;18.50;99.90
20428;DHT22;10373;49.768;18.302;2023-07-08T05:23:45;18.70;99.90
20428;DHT22;10373;49.768;18.302;2023-07-08T05:26:11;18.80;99.90
20428;DHT22;10373;49.768;18.302;2023-07-08T05:28:36;18.80;99.90
20428;DHT22;10373;49.768;18.302;2023-07-08T05:31:02;18.90;98.60
20428;DHT22;10373;49.768;18.302;2023-07-08T05:33:30;19.00;99.80
20428;DHT22;10373;49.768;18.302;2023-07-08T05:35:56;19.00;99.80
20428;DHT22;10373;49.768;18.302;2023-07-08T05:38:24;19.00;95.60
20428;DHT22;10373;49.768;18.302;2023-07-08T05:40:53;19.10;98.80
20428;DHT22;10373;49.768;18.302;2023-07-08T05:43:19;19.20;99.90
20428;DHT22;10373;49.768;18.302;2023-07-08T05:45:45;19.30;98.80
20428;DHT22;10373;49.768;18.302;2023-07-08T05:48:11;19.50;99.10
20428;DHT22;10373;49.768;18.302;2023-07-08T05:50:37;19.50;93.70
20428;DHT22;10373;49.768;18.302;2023-07-08T05:53:04;19.40;91.90
20428;DHT22;10373;49.768;18.302;2023-07-08T05:55:31;19.50;93.90
20428;DHT22;10373;49.768;18.302;2023-07-08T05:57:57;19.70;94.10
20428;DHT22;10373;49.768;18.302;2023-07-08T06:00:23;19.80;92.70
20428;DHT22;10373;49.768;18.302;2023-07-08T06:02:49;19.90;93.50
20428;DHT22;10373;49.768;18.302;2023-07-08T06:05:14;20.00;90.00
20428;DHT22;10373;49.768;18.302;2023-07-08T06:07:40;20.10;88.60
20428;DHT22;10373;49.768;18.302;2023-07-08T06:10:06;20.20;88.90
20428;DHT22;10373;49.768;18.302;2023-07-08T06:12:32;20.30;86.60
20428;DHT22;10373;49.768;18.302;2023-07-08T06:14:58;20.40;87.90
20428;DHT22;10373;49.768;18.302;2023-07-08T06:17:23;20.50;86.10
20428;DHT22;10373;49.768;18.302;2023-07-08T06:19:49;20.60;85.60
20428;DHT22;10373;49.768;18.302;2023-07-08T06:22:15;20.70;84.30
20428;DHT22;10373;49.768;18.302;2023-07-08T06:24:41;20.70;82.90
20428;DHT22;10373;49.768;18.302;2023-07-08T06:27:07;20.80;84.50
20428;DHT22;10373;49.768;18.302;2023-07-08T06:29:56;20.90;82.40
20428;DHT22;10373;49.768;18.302;2023-07-08T06:32:21;20.90;80.20
20428;DHT22;10373;49.768;18.302;2023-07-08T06:34:47;21.00;82.60
20428;DHT22;10373;49.768;18.302;2023-07-08T06:37:13;21.00;78.90
20428;DHT22;10373;49.768;18.302;2023-07-08T06:39:38;21.20;80.00
20428;DHT22;10373;49.768;18.302;2023-07-08T06:42:04;21.40;81.70
20428;DHT22;10373;49.768;18.302;2023-07-08T06:44:30;21.60;79.00
20428;DHT22;10373;49.768;18.302;2023-07-08T06:46:56;21.60;76.90
20428;DHT22;10373;49.768;18.302;2023-07-08T06:49:21;21.70;76.40
20428;DHT22;10373;49.768;18.302;2023-07-08T06:51:47;21.70;74.90
20428;DHT22;10373;49.768;18.302;2023-07-08T06:54:13;21.70;75.20
20428;DHT22;10373;49.768;18.302;2023-07-08T06:56:39;21.60;75.80
20428;DHT22;10373;49.768;18.302;2023-07-08T06:59:06;21.70;75.30
20428;DHT22;10373;49.768;18.302;2023-07-08T07:01:32;21.60;73.80
20428;DHT22;10373;49.768;18.302;2023-07-08T07:03:58;21.80;73.80
20428;DHT22;10373;49.768;18.302;2023-07-08T07:06:25;21.90;73.00
20428;DHT22;10373;49.768;18.302;2023-07-08T07:08:50;22.10;71.40
20428;DHT22;10373;49.768;18.302;2023-07-08T07:11:16;22.30;72.20
20428;DHT22;10373;49.768;18.302;2023-07-08T07:13:42;22.40;71.20
20428;DHT22;10373;49.768;18.302;2023-07-08T07:16:07;22.60;70.10
20428;DHT22;10373;49.768;18.302;2023-07-08T07:18:33;22.70;70.70
20428;DHT22;10373;49.768;18.302;2023-07-08T07:20:59;22.80;69.80
20428;DHT22;10373;49.768;18.302;2023-07-08T07:23:25;23.00;68.60
20428;DHT22;10373;49.768;18.302;2023-07-08T07:25:51;23.00;66.90
20428;DHT22;10373;49.768;18.302;2023-07-08T07:28:17;23.10;66.70
20428;DHT22;10373;49.768;18.302;2023-07-08T07:30:44;23.00;66.00
20428;DHT22;10373;49.768;18.302;2023-07-08T07:33:10;23.00;65.60
20428;DHT22;10373;49.768;18.302;2023-07-08T07:35:41;23.00;63.70
20428;DHT22;10373;49.768;18.302;2023-07-08T07:38:06;23.10;64.10
20428;DHT22;10373;49.768;18.302;2023-07-08T07:40:32;23.30;65.00
20428;DHT22;10373;49.768;18.302;2023-07-08T07:42:58;23.50;66.10
20428;DHT22;10373;49.768;18.302;2023-07-08T07:45:23;23.70;65.90
20428;DHT22;10373;49.768;18.302;2023-07-08T07:47:49;23.90;63.10
20428;DHT22;10373;49.768;18.302;2023-07-08T07:50:15;23.90;61.00
20428;DHT22;10373;49.768;18.302;2023-07-08T07:52:41;24.00;60.00
20428;DHT22;10373;49.768;18.302;2023-07-08T07:55:07;24.00;59.90
20428;DHT22;10373;49.768;18.302;2023-07-08T07:57:33;24.00;58.80
20428;DHT22;10373;49.768;18.302;2023-07-08T07:59:59;24.10;56.90
20428;DHT22;10373;49.768;18.302;2023-07-08T08:02:25;24.10;56.40
20428;DHT22;10373;49.768;18.302;2023-07-08T08:04:50;24.20;57.40
20428;DHT22;10373;49.768;18.302;2023-07-08T08:07:16;24.20;56.70
20428;DHT22;10373;49.768;18.302;2023-07-08T08:09:42;24.30;56.10
20428;DHT22;10373;49.768;18.302;2023-07-08T08:12:10;24.40;55.70
20428;DHT22;10373;49.768;18.302;2023-07-08T08:14:36;24.40;53.50
20428;DHT22;10373;49.768;18.302;2023-07-08T08:17:02;24.50;52.60
20428;DHT22;10373;49.768;18.302;2023-07-08T08:19:28;24.70;52.20
20428;DHT22;10373;49.768;18.302;2023-07-08T08:21:54;24.80;51.40
20428;DHT22;10373;49.768;18.302;2023-07-08T08:24:20;25.00;51.40
20428;DHT22;10373;49.768;18.302;2023-07-08T08:26:45;25.20;52.30
20428;DHT22;10373;49.768;18.302;2023-07-08T08:29:11;25.30;51.00
20428;DHT22;10373;49.768;18.302;2023-07-08T08:31:36;25.40;50.10
20428;DHT22;10373;49.768;18.302;2023-07-08T08:34:02;25.50;49.60
20428;DHT22;10373;49.768;18.302;2023-07-08T08:36:28;25.60;49.40
20428;DHT22;10373;49.768;18.302;2023-07-08T08:38:57;25.80;51.20
20428;DHT22;10373;49.768;18.302;2023-07-08T08:41:34;26.10;51.50
20428;DHT22;10373;49.768;18.302;2023-07-08T08:44:02;26.20;51.30
20428;DHT22;10373;49.768;18.302;2023-07-08T08:51:48;26.20;48.60
20428;DHT22;10373;49.768;18.302;2023-07-08T08:54:14;26.10;48.80
20428;DHT22;10373;49.768;18.302;2023-07-08T08:59:51;25.90;49.20
20428;DHT22;10373;49.768;18.302;2023-07-08T09:05:13;26.40;48.70
20428;DHT22;10373;49.768;18.302;2023-07-08T09:10:25;27.00;48.40
20428;DHT22;10373;49.768;18.302;2023-07-08T09:12:57;27.10;48.80
20428;DHT22;10373;49.768;18.302;2023-07-08T09:15:26;27.10;49.00
20428;DHT22;10373;49.768;18.302;2023-07-08T09:17:53;27.10;48.40
20428;DHT22;10373;49.768;18.302;2023-07-08T09:20:26;27.00;47.50
20428;DHT22;10373;49.768;18.302;2023-07-08T09:23:03;27.10;47.40
20428;DHT22;10373;49.768;18.302;2023-07-08T09:25:41;27.20;47.50
20428;DHT22;10373;49.768;18.302;2023-07-08T09:28:08;27.20;47.30
20428;DHT22;10373;49.768;18.302;2023-07-08T09:30:34;27.20;47.60
20428;DHT22;10373;49.768;18.302;2023-07-08T09:33:04;27.30;47.20
20428;DHT22;10373;49.768;18.302;2023-07-08T09:35:46;27.20;46.50
20428;DHT22;10373;49.768;18.302;2023-07-08T09:38:21;26.80;46.40
20428;DHT22;10373;49.768;18.302;2023-07-08T09:40:48;26.90;47.00
20428;DHT22;10373;49.768;18.302;2023-07-08T09:45:46;27.20;46.50
20428;DHT22;10373;49.768;18.302;2023-07-08T09:48:30;27.30;46.80
20428;DHT22;10373;49.768;18.302;2023-07-08T09:50:59;27.50;46.50
20428;DHT22;10373;49.768;18.302;2023-07-08T09:53:25;27.60;46.40
20428;DHT22;10373;49.768;18.302;2023-07-08T09:55:53;27.80;46.70
20428;DHT22;10373;49.768;18.302;2023-07-08T09:58:37;27.90;46.80
20428;DHT22;10373;49.768;18.302;2023-07-08T10:01:15;28.10;46.70
20428;DHT22;10373;49.768;18.302;2023-07-08T10:03:42;28.20;46.20
20428;DHT22;10373;49.768;18.302;2023-07-08T10:06:26;28.20;45.00
20428;DHT22;10373;49.768;18.302;2023-07-08T10:08:54;28.40;45.80
20428;DHT22;10373;49.768;18.302;2023-07-08T10:13:51;28.50;45.60
20428;DHT22;10373;49.768;18.302;2023-07-08T10:16:35;28.20;44.80
20428;DHT22;10373;49.768;18.302;2023-07-08T10:19:04;28.30;45.10
20428;DHT22;10373;49.768;18.302;2023-07-08T10:30:21;28.90;44.70
20428;DHT22;10373;49.768;18.302;2023-07-08T10:44:04;29.40;42.70
20428;DHT22;10373;49.768;18.302;2023-07-08T10:55:29;29.90;41.90
20428;DHT22;10373;49.768;18.302;2023-07-08T10:58:24;30.10;40.90
20428;DHT22;10373;49.768;18.302;2023-07-08T11:06:12;30.50;40.70
20428;DHT22;10373;49.768;18.302;2023-07-08T11:08:46;30.70;40.20
20428;DHT22;10373;49.768;18.302;2023-07-08T11:14:03;30.60;39.40
20428;DHT22;10373;49.768;18.302;2023-07-08T11:16:38;30.80;39.30
20428;DHT22;10373;49.768;18.302;2023-07-08T11:19:13;31.10;39.50
20428;DHT22;10373;49.768;18.302;2023-07-08T11:21:47;31.30;39.50
20428;DHT22;10373;49.768;18.302;2023-07-08T11:26:58;32.00;40.10
20428;DHT22;10373;49.768;18.302;2023-07-08T11:29:42;32.30;40.40
20428;DHT22;10373;49.768;18.302;2023-07-08T11:32:14;32.40;40.20
20428;DHT22;10373;49.768;18.302;2023-07-08T11:34:43;32.30;38.50
20428;DHT22;10373;49.768;18.302;2023-07-08T11:37:11;32.70;38.30
20428;DHT22;10373;49.768;18.302;2023-07-08T11:39:43;32.60;38.20
20428;DHT22;10373;49.768;18.302;2023-07-08T11:44:41;32.70;39.00
20428;DHT22;10373;49.768;18.302;2023-07-08T11:47:16;33.00;38.50
20428;DHT22;10373;49.768;18.302;2023-07-08T11:49:46;32.80;39.20
20428;DHT22;10373;49.768;18.302;2023-07-08T11:52:17;33.10;38.20
20428;DHT22;10373;49.768;18.302;2023-07-08T11:54:46;33.40;38.20
20428;DHT22;10373;49.768;18.302;2023-07-08T11:57:17;33.20;38.10
20428;DHT22;10373;49.768;18.302;2023-07-08T11:59:43;33.30;37.00
20428;DHT22;10373;49.768;18.302;2023-07-08T12:02:16;33.90;36.90
20428;DHT22;10373;49.768;18.302;2023-07-08T12:07:48;34.30;36.30
20428;DHT22;10373;49.768;18.302;2023-07-08T12:10:32;34.60;36.10
20428;DHT22;10373;49.768;18.302;2023-07-08T12:13:28;35.10;36.10
20428;DHT22;10373;49.768;18.302;2023-07-08T12:16:55;35.20;35.60
20428;DHT22;10373;49.768;18.302;2023-07-08T12:23:20;35.20;34.40
20428;DHT22;10373;49.768;18.302;2023-07-08T12:25:46;34.90;34.70
20428;DHT22;10373;49.768;18.302;2023-07-08T12:28:12;35.20;35.00
20428;DHT22;10373;49.768;18.302;2023-07-08T12:30:39;35.70;34.80
20428;DHT22;10373;49.768;18.302;2023-07-08T12:33:12;36.10;36.10
20428;DHT22;10373;49.768;18.302;2023-07-08T12:35:40;36.60;35.80
20428;DHT22;10373;49.768;18.302;2023-07-08T12:38:20;35.90;34.50
20428;DHT22;10373;49.768;18.302;2023-07-08T12:40:47;35.90;35.00
20428;DHT22;10373;49.768;18.302;2023-07-08T12:43:48;36.40;34.20
20428;DHT22;10373;49.768;18.302;2023-07-08T12:47:19;36.10;34.80
20428;DHT22;10373;49.768;18.302;2023-07-08T12:54:10;35.70;34.20
20428;DHT22;10373;49.768;18.302;2023-07-08T12:57:47;36.00;34.40
20428;DHT22;10373;49.768;18.302;2023-07-08T13:11:22;35.40;34.30
20428;DHT22;10373;49.768;18.302;2023-07-08T13:14:00;35.60;34.20
20428;DHT22;10373;49.768;18.302;2023-07-08T13:16:31;35.60;34.30
20428;DHT22;10373;49.768;18.302;2023-07-08T15:11:48;29.50;39.20
20428;DHT22;10373;49.768;18.302;2023-07-08T15:14:21;29.50;39.20
20428;DHT22;10373;49.768;18.302;2023-07-08T15:16:49;29.40;39.60
20428;DHT22;10373;49.768;18.302;2023-07-08T15:19:15;29.30;39.60
20428;DHT22;10373;49.768;18.302;2023-07-08T15:21:41;29.20;39.30
20428;DHT22;10373;49.768;18.302;2023-07-08T15:24:09;29.10;39.10
20428;DHT22;10373;49.768;18.302;2023-07-08T15:26:40;29.00;39.50
20428;DHT22;10373;49.768;18.302;2023-07-08T15:29:13;29.00;39.50
20428;DHT22;10373;49.768;18.302;2023-07-08T15:31:39;28.90;40.20
20428;DHT22;10373;49.768;18.302;2023-07-08T15:34:15;28.90;40.70
20428;DHT22;10373;49.768;18.302;2023-07-08T15:36:41;28.90;41.40
20428;DHT22;10373;49.768;18.302;2023-07-08T15:39:07;28.90;41.20
20428;DHT22;10373;49.768;18.302;2023-07-08T15:41:34;28.90;41.50
20428;DHT22;10373;49.768;18.302;2023-07-08T15:44:00;28.90;41.50
20428;DHT22;10373;49.768;18.302;2023-07-08T15:46:32;28.80;40.90
20428;DHT22;10373;49.768;18.302;2023-07-08T15:48:58;28.70;40.70
20428;DHT22;10373;49.768;18.302;2023-07-08T15:51:24;28.60;40.80
20428;DHT22;10373;49.768;18.302;2023-07-08T15:53:49;28.40;40.90
20428;DHT22;10373;49.768;18.302;2023-07-08T15:56:18;28.40;41.10
20428;DHT22;10373;49.768;18.302;2023-07-08T15:58:45;28.40;41.80
20428;DHT22;10373;49.768;18.302;2023-07-08T16:01:23;28.30;41.70
20428;DHT22;10373;49.768;18.302;2023-07-08T16:03:50;28.30;42.00
20428;DHT22;10373;49.768;18.302;2023-07-08T16:06:17;28.20;41.30
20428;DHT22;10373;49.768;18.302;2023-07-08T16:08:44;28.20;41.90
20428;DHT22;10373;49.768;18.302;2023-07-08T16:11:15;28.10;41.80
20428;DHT22;10373;49.768;18.302;2023-07-08T16:13:42;28.00;41.90
20428;DHT22;10373;49.768;18.302;2023-07-08T16:16:12;27.90;42.00
20428;DHT22;10373;49.768;18.302;2023-07-08T16:18:39;27.90;42.10
20428;DHT22;10373;49.768;18.302;2023-07-08T16:21:05;27.80;41.90
20428;DHT22;10373;49.768;18.302;2023-07-08T16:23:31;27.90;42.30
20428;DHT22;10373;49.768;18.302;2023-07-08T16:25:57;28.00;42.60
20428;DHT22;10373;49.768;18.302;2023-07-08T16:28:38;28.00;41.80
20428;DHT22;10373;49.768;18.302;2023-07-08T16:31:19;28.00;42.40
20428;DHT22;10373;49.768;18.302;2023-07-08T16:33:46;28.10;42.50
20428;DHT22;10373;49.768;18.302;2023-07-08T16:36:22;28.20;42.50
20428;DHT22;10373;49.768;18.302;2023-07-08T16:38:48;28.30;43.30
20428;DHT22;10373;49.768;18.302;2023-07-08T16:41:16;28.30;41.50
20428;DHT22;10373;49.768;18.302;2023-07-08T16:43:43;28.40;41.50
20428;DHT22;10373;49.768;18.302;2023-07-08T16:46:10;28.30;41.60
20428;DHT22;10373;49.768;18.302;2023-07-08T16:48:37;28.30;42.10
20428;DHT22;10373;49.768;18.302;2023-07-08T16:51:14;28.30;42.30
20428;DHT22;10373;49.768;18.302;2023-07-08T16:53:41;28.20;42.40
20428;DHT22;10373;49.768;18.302;2023-07-08T16:56:11;28.10;42.60
20428;DHT22;10373;49.768;18.302;2023-07-08T16:58:38;28.00;42.50
20428;DHT22;10373;49.768;18.302;2023-07-08T17:01:05;27.80;42.00
20428;DHT22;10373;49.768;18.302;2023-07-08T17:03:31;27.80;42.90
20428;DHT22;10373;49.768;18.302;2023-07-08T17:05:58;27.70;43.10
20428;DHT22;10373;49.768;18.302;2023-07-08T17:08:24;27.70;43.30
20428;DHT22;10373;49.768;18.302;2023-07-08T17:10:50;27.60;43.50
20428;DHT22;10373;49.768;18.302;2023-07-08T17:13:15;27.50;43.80
20428;DHT22;10373;49.768;18.302;2023-07-08T17:15:41;27.40;43.80
20428;DHT22;10373;49.768;18.302;2023-07-08T17:18:14;27.30;44.10
20428;DHT22;10373;49.768;18.302;2023-07-08T17:20:42;27.20;43.90
20428;DHT22;10373;49.768;18.302;2023-07-08T17:23:13;27.20;43.80
20428;DHT22;10373;49.768;18.302;2023-07-08T17:25:39;27.20;43.80
20428;DHT22;10373;49.768;18.302;2023-07-08T17:28:05;27.20;43.80
20428;DHT22;10373;49.768;18.302;2023-07-08T17:30:31;27.30;43.80
20428;DHT22;10373;49.768;18.302;2023-07-08T17:32:58;27.40;43.80
20428;DHT22;10373;49.768;18.302;2023-07-08T17:35:26;27.40;43.60
20428;DHT22;10373;49.768;18.302;2023-07-08T17:37:52;27.60;43.70
20428;DHT22;10373;49.768;18.302;2023-07-08T17:40:24;27.60;44.00
20428;DHT22;10373;49.768;18.302;2023-07-08T17:42:51;27.70;44.60
20428;DHT22;10373;49.768;18.302;2023-07-08T17:45:20;27.60;44.80
20428;DHT22;10373;49.768;18.302;2023-07-08T17:47:48;27.50;44.50
20428;DHT22;10373;49.768;18.302;2023-07-08T17:52:43;27.20;44.70
20428;DHT22;10373;49.768;18.302;2023-07-08T17:55:10;27.10;45.40
20428;DHT22;10373;49.768;18.302;2023-07-08T17:57:36;27.00;45.70
20428;DHT22;10373;49.768;18.302;2023-07-08T18:00:03;26.90;46.10
20428;DHT22;10373;49.768;18.302;2023-07-08T18:02:31;26.90;46.60
20428;DHT22;10373;49.768;18.302;2023-07-08T18:04:57;26.80;46.90
20428;DHT22;10373;49.768;18.302;2023-07-08T18:07:23;26.80;47.30
20428;DHT22;10373;49.768;18.302;2023-07-08T18:09:51;26.70;47.70
20428;DHT22;10373;49.768;18.302;2023-07-08T18:12:17;26.60;47.60
20428;DHT22;10373;49.768;18.302;2023-07-08T18:14:45;26.50;48.10
20428;DHT22;10373;49.768;18.302;2023-07-08T18:17:12;26.40;48.30
20428;DHT22;10373;49.768;18.302;2023-07-08T18:19:37;26.30;47.90
20428;DHT22;10373;49.768;18.302;2023-07-08T18:22:03;26.30;48.00
20428;DHT22;10373;49.768;18.302;2023-07-08T18:24:29;26.30;48.30
20428;DHT22;10373;49.768;18.302;2023-07-08T18:26:55;26.30;49.00
20428;DHT22;10373;49.768;18.302;2023-07-08T18:29:21;26.10;51.80
20428;DHT22;10373;49.768;18.302;2023-07-08T18:31:47;25.80;54.10
20428;DHT22;10373;49.768;18.302;2023-07-08T18:34:13;25.60;56.20
20428;DHT22;10373;49.768;18.302;2023-07-08T18:36:38;25.40;57.30
20428;DHT22;10373;49.768;18.302;2023-07-08T18:39:06;25.10;58.30
20428;DHT22;10373;49.768;18.302;2023-07-08T18:41:46;24.90;59.90
20428;DHT22;10373;49.768;18.302;2023-07-08T18:44:25;24.70;61.00
20428;DHT22;10373;49.768;18.302;2023-07-08T18:46:52;24.50;62.30
20428;DHT22;10373;49.768;18.302;2023-07-08T18:49:19;24.30;62.80